Chester, Indiana
Current Conditions -  °F | °C
As of 10:55 AM on Friday 21 Nov 2014 (Local Time) from KVES Reporting Station
Clear Clear  
Wind Chill: 23°   Ceiling: Unl
Heat Index: 23°   Visibility: 10mi
Dew Point: 12°   Wind: 0mph
Humidity: 63%   Direction: NA
Pressure: 30.5"   Gusts: NA
Location:  39.8311°N, 84.8879°W
Report Text: KVES 211555Z AUTO 00000KT 10SM CLR M05/M11 A3050 RMK AO2
Loading
Personal Weather Stations






























Interactive Weather Map New forecast layout! Learn more

10-Day Weather Forecast

Advertisements
Track Severe Weather on mobile